createdAt,value
2023-04-15T00:03:22.943Z,9.80
2023-04-15T00:08:31.326Z,9.90
2023-04-15T00:13:40.372Z,9.90
2023-04-15T00:18:49.770Z,9.80
2023-04-15T00:23:57.966Z,9.80
2023-04-15T00:29:06.804Z,9.80
2023-04-15T00:34:15.650Z,9.80
2023-04-15T00:39:24.238Z,9.80
2023-04-15T00:44:33.072Z,9.90
2023-04-15T00:49:41.796Z,9.80
2023-04-15T00:54:50.491Z,9.80
2023-04-15T00:59:59.170Z,9.80
2023-04-15T01:05:08.008Z,9.80
2023-04-15T01:10:16.361Z,9.70
2023-04-15T01:15:25.199Z,9.70
2023-04-15T01:20:33.747Z,9.70
2023-04-15T01:25:42.952Z,9.60
2023-04-15T01:30:51.264Z,9.60
2023-04-15T01:36:00.405Z,9.60
2023-04-15T01:41:08.873Z,9.60
2023-04-15T01:46:18.042Z,9.50
2023-04-15T01:51:26.191Z,9.50
2023-04-15T01:56:34.961Z,9.50
2023-04-15T02:01:43.532Z,9.40
2023-04-15T02:06:52.550Z,9.40
2023-04-15T02:12:01.128Z,9.40
2023-04-15T02:17:09.942Z,9.40
2023-04-15T02:22:18.855Z,9.30
2023-04-15T02:27:26.927Z,9.30
2023-04-15T02:32:35.548Z,9.20
2023-04-15T02:37:44.714Z,9.30
2023-04-15T02:42:53.353Z,9.20
2023-04-15T02:48:02.024Z,9.20
2023-04-15T02:53:10.360Z,9.10
2023-04-15T02:58:19.632Z,9.10
2023-04-15T03:03:28.285Z,9.00
2023-04-15T03:08:36.814Z,9.00
2023-04-15T03:13:45.147Z,9.00
2023-04-15T03:18:54.148Z,8.90
2023-04-15T03:24:02.615Z,8.90
2023-04-15T03:29:11.306Z,8.90
2023-04-15T03:34:19.928Z,8.90
2023-04-15T03:39:29.187Z,8.80
2023-04-15T03:44:37.963Z,8.80
2023-04-15T03:49:46.652Z,8.80
2023-04-15T03:54:55.192Z,8.70
2023-04-15T04:00:04.505Z,8.70
2023-04-15T04:05:13.071Z,8.70
2023-04-15T04:10:22.063Z,8.70
2023-04-15T04:15:30.742Z,8.70
2023-04-15T04:20:39.979Z,8.70
2023-04-15T04:25:48.241Z,8.70
2023-04-15T04:30:56.653Z,8.70
2023-04-15T04:36:05.592Z,8.80
2023-04-15T04:41:14.575Z,8.80
2023-04-15T04:46:22.963Z,9.00
2023-04-15T04:51:31.751Z,9.10
2023-04-15T04:56:40.373Z,9.20
2023-04-15T05:01:48.968Z,9.30
2023-04-15T05:06:57.497Z,9.40
2023-04-15T05:12:06.252Z,9.60
2023-04-15T05:17:14.891Z,9.60
2023-04-15T05:22:23.821Z,9.70
2023-04-15T05:27:32.359Z,9.70
2023-04-15T05:32:41.735Z,9.70
2023-04-15T05:37:50.079Z,9.70
2023-04-15T05:42:59.203Z,9.70
2023-04-15T05:48:07.740Z,9.80
2023-04-15T05:53:16.872Z,9.80
2023-04-15T05:58:25.584Z,9.90
2023-04-15T06:03:34.769Z,10.00
2023-04-15T06:08:43.376Z,10.10
2023-04-15T06:13:52.520Z,10.30
2023-04-15T06:19:01.462Z,10.30
2023-04-15T06:24:10.239Z,10.40
2023-04-15T06:29:19.076Z,10.50
2023-04-15T06:34:27.858Z,10.70
2023-04-15T06:39:36.236Z,10.80
2023-04-15T06:44:45.281Z,10.80
2023-04-15T06:49:54.018Z,10.90
2023-04-15T06:55:03.332Z,10.90
2023-04-15T07:00:11.845Z,10.80
2023-04-15T07:05:21.145Z,10.80
2023-04-15T07:10:29.616Z,10.90
2023-04-15T07:15:38.201Z,10.80
2023-04-15T07:20:46.432Z,10.80
2023-04-15T07:25:55.345Z,10.80
2023-04-15T07:31:04.051Z,10.70
2023-04-15T07:36:12.679Z,10.70
2023-04-15T07:41:21.223Z,10.70
2023-04-15T07:46:29.752Z,10.80
2023-04-15T07:51:38.152Z,10.90
2023-04-15T07:56:46.875Z,11.00
2023-04-15T08:01:55.750Z,11.20
2023-04-15T08:07:04.849Z,11.50
2023-04-15T08:12:13.220Z,11.60
2023-04-15T08:17:21.901Z,11.70
2023-04-15T08:22:30.729Z,12.00
2023-04-15T08:27:39.450Z,12.20
2023-04-15T08:32:47.745Z,12.40
2023-04-15T08:37:56.337Z,12.50
2023-04-15T08:43:04.958Z,12.60
2023-04-15T08:48:13.675Z,12.80
2023-04-15T08:53:22.120Z,13.20
2023-04-15T08:58:31.072Z,13.70
2023-04-15T09:03:39.723Z,13.90
2023-04-15T09:08:48.536Z,14.20
2023-04-15T09:13:56.880Z,14.00
2023-04-15T09:19:05.674Z,13.80
2023-04-15T09:24:14.613Z,13.70
2023-04-15T09:29:23.766Z,13.80
2023-04-15T09:34:32.529Z,13.90
2023-04-15T09:39:41.582Z,14.00
2023-04-15T09:44:50.181Z,14.00
2023-04-15T09:49:59.002Z,14.20
2023-04-15T09:55:07.616Z,14.20
2023-04-15T10:00:16.596Z,14.20
2023-04-15T10:05:25.444Z,14.30
2023-04-15T10:10:34.687Z,14.40
2023-04-15T10:15:43.113Z,14.30
2023-04-15T10:20:52.102Z,14.30
2023-04-15T10:26:00.482Z,14.50
2023-04-15T10:31:09.410Z,14.60
2023-04-15T10:36:17.951Z,14.70
2023-04-15T10:41:26.653Z,14.60
2023-04-15T10:46:35.086Z,14.40
2023-04-15T10:51:44.022Z,14.60
2023-04-15T10:56:52.689Z,14.90
2023-04-15T11:02:01.620Z,15.00
2023-04-15T11:07:10.210Z,15.20
2023-04-15T11:12:19.148Z,15.10
2023-04-15T11:17:27.964Z,14.90
2023-04-15T11:22:37.067Z,14.80
2023-04-15T11:27:45.651Z,14.90
2023-04-15T11:32:55.077Z,15.30
2023-04-15T11:38:03.832Z,15.60
2023-04-15T11:43:12.555Z,15.80
2023-04-15T11:48:20.996Z,16.10
2023-04-15T11:53:29.508Z,16.10
2023-04-15T11:58:38.095Z,15.90
2023-04-15T12:03:47.271Z,15.80
2023-04-15T12:08:55.470Z,15.50
2023-04-15T12:14:06.505Z,15.20
2023-04-15T12:19:05.452Z,15.20
2023-04-15T12:24:14.402Z,15.00
2023-04-15T12:29:22.846Z,14.60
2023-04-15T12:34:31.747Z,14.30
2023-04-15T12:39:40.274Z,13.90
2023-04-15T12:44:49.004Z,13.70
2023-04-15T12:49:57.967Z,13.60
2023-04-15T12:55:06.695Z,13.40
2023-04-15T13:00:15.252Z,13.20
2023-04-15T13:05:24.770Z,13.10
2023-04-15T13:10:33.275Z,13.20
2023-04-15T13:15:41.999Z,13.30
2023-04-15T13:20:50.753Z,13.20
2023-04-15T13:25:59.684Z,13.00
2023-04-15T13:31:08.560Z,12.80
2023-04-15T13:36:17.785Z,12.80
2023-04-15T13:41:26.608Z,12.50
2023-04-15T13:46:36.310Z,12.20
2023-04-15T13:51:45.582Z,12.00
2023-04-15T13:56:55.458Z,12.00
2023-04-15T14:02:04.512Z,11.90
2023-04-15T14:07:13.477Z,11.80
2023-04-15T14:12:22.341Z,11.50
2023-04-15T14:17:31.510Z,11.50
2023-04-15T14:22:41.556Z,11.50
2023-04-15T14:27:50.418Z,11.50
2023-04-15T14:32:59.713Z,11.40
2023-04-15T14:38:09.329Z,11.40
2023-04-15T14:43:18.894Z,11.30
2023-04-15T14:48:28.558Z,11.30
2023-04-15T14:53:37.443Z,11.30
2023-04-15T14:58:46.826Z,11.20
2023-04-15T15:03:56.037Z,11.10
2023-04-15T15:09:06.657Z,11.10
2023-04-15T15:14:14.821Z,11.00
2023-04-15T15:19:24.338Z,10.90
2023-04-15T15:24:33.554Z,10.90
2023-04-15T15:29:42.603Z,11.00
2023-04-15T15:34:51.309Z,11.00
2023-04-15T15:40:00.887Z,11.10
2023-04-15T15:45:09.793Z,11.10
2023-04-15T15:50:19.092Z,11.10
2023-04-15T15:55:28.042Z,11.10
2023-04-15T16:00:37.008Z,11.10
2023-04-15T16:05:45.881Z,11.00
2023-04-15T16:10:55.118Z,10.90
2023-04-15T16:16:04.659Z,10.90
2023-04-15T16:21:14.410Z,10.80
2023-04-15T16:26:23.238Z,10.70
2023-04-15T16:31:32.470Z,10.60
2023-04-15T16:36:41.588Z,10.60
2023-04-15T16:41:50.953Z,10.40
2023-04-15T16:46:59.930Z,10.40
2023-04-15T16:52:09.311Z,10.30
2023-04-15T16:57:18.388Z,10.30
2023-04-15T17:02:28.167Z,10.30
2023-04-15T17:07:36.895Z,10.30
2023-04-15T17:12:46.150Z,10.30
2023-04-15T17:17:55.291Z,10.20
2023-04-15T17:23:05.354Z,10.20
2023-04-15T17:28:03.985Z,10.10
2023-04-15T17:33:57.805Z,10.00
2023-04-15T17:38:12.916Z,10.00
2023-04-15T17:43:23.546Z,10.00
2023-04-15T17:48:22.304Z,10.00
2023-04-15T17:53:31.824Z,9.90
2023-04-15T17:58:40.787Z,9.90
2023-04-15T18:03:49.765Z,9.80
2023-04-15T18:08:58.602Z,9.80
2023-04-15T18:14:07.784Z,9.70
2023-04-15T18:19:16.509Z,9.60
2023-04-15T18:24:25.818Z,9.60
2023-04-15T18:29:34.472Z,9.50
2023-04-15T18:34:43.654Z,9.50
2023-04-15T18:39:52.472Z,9.40
2023-04-15T18:45:01.991Z,9.50
2023-04-15T18:50:11.122Z,9.50
2023-04-15T18:55:19.904Z,9.50
2023-04-15T19:00:28.966Z,9.40
2023-04-15T19:05:38.133Z,9.40
2023-04-15T19:10:47.201Z,9.40
2023-04-15T19:15:56.165Z,9.40
2023-04-15T19:21:04.819Z,9.40
2023-04-15T19:26:14.194Z,9.40
2023-04-15T19:31:23.432Z,9.40
2023-04-15T19:36:32.666Z,9.40
2023-04-15T19:41:41.594Z,9.40
2023-04-15T19:46:50.718Z,9.40
2023-04-15T19:51:59.386Z,9.30
2023-04-15T19:57:08.755Z,9.30
2023-04-15T20:02:17.678Z,9.30
2023-04-15T20:07:29.506Z,9.20
2023-04-15T20:12:49.836Z,9.10
2023-04-15T20:17:36.467Z,9.10
2023-04-15T20:22:45.688Z,9.00
2023-04-15T20:27:54.719Z,9.00
2023-04-15T20:33:03.575Z,8.90
2023-04-15T20:38:12.780Z,8.90
2023-04-15T20:43:21.803Z,8.90
2023-04-15T20:48:30.771Z,8.90
2023-04-15T20:53:39.803Z,8.90
2023-04-15T20:58:49.660Z,9.00
2023-04-15T21:03:58.917Z,9.00
2023-04-15T21:09:07.925Z,9.00
2023-04-15T21:14:16.738Z,9.00
2023-04-15T21:19:26.164Z,9.00
2023-04-15T21:24:34.755Z,9.10
2023-04-15T21:29:44.165Z,9.00
2023-04-15T21:34:53.163Z,9.00
2023-04-15T21:40:02.170Z,9.10
2023-04-15T21:45:11.184Z,9.00
2023-04-15T21:50:21.091Z,9.10
2023-04-15T21:55:29.929Z,9.10
2023-04-15T22:00:40.864Z,9.00
2023-04-15T22:05:47.163Z,9.00
2023-04-15T22:10:56.195Z,9.00
2023-04-15T22:16:05.059Z,9.00
2023-04-15T22:21:13.894Z,9.00
2023-04-15T22:26:22.370Z,9.00
2023-04-15T22:31:31.374Z,9.00
2023-04-15T22:36:39.788Z,9.00
2023-04-15T22:41:48.653Z,9.00
2023-04-15T22:46:57.371Z,9.00
2023-04-15T22:52:07.008Z,9.00
2023-04-15T22:57:14.324Z,9.10
2023-04-15T23:02:23.704Z,9.00
2023-04-15T23:07:32.197Z,9.00
2023-04-15T23:12:41.214Z,9.00
2023-04-15T23:17:49.601Z,9.00
2023-04-15T23:22:58.987Z,9.10
2023-04-15T23:28:07.404Z,9.00
2023-04-15T23:33:16.095Z,9.10
2023-04-15T23:38:24.940Z,9.10
2023-04-15T23:43:33.695Z,9.10
2023-04-15T23:48:42.262Z,9.10
2023-04-15T23:53:51.509Z,9.10
2023-04-15T23:58:59.798Z,9.10
